Fort Providence, Canada
Current Conditions -  °F | °C
As of 1:00 PM on Sunday 23 Nov 2014 (Local Time) from CYHY Reporting Station
Light Snow Light Snow  
Wind Chill: -14°   Ceiling: 8000
Heat Index:   Visibility: 2mi
Dew Point: -2°   Wind: 13mph
Humidity: 78%   Direction: 310°NW
Pressure: 29.85"   Gusts: NA
Location:  61.37°N, 117.65°W
Report Text: CYHY 232000Z 31011KT 2SM -SN DRSN FEW040 OVC080 M16/M19 A2985 RMK SC1AS7 SLP127
Loading
Personal Weather Stations






























Interactive Weather Map New forecast layout! Learn more

10-Day Weather Forecast

Advertisements
Track Severe Weather on mobile